Time;durP1;ratioP1;P1;durP2;ratioP2;P2;SDS_P1;SDS_P2;PMS_P1;PMS_P2;Temp;Humidity;BMP_temperature;BMP_pressure;BME280_temperature;BME280_humidity;BME280_pressure;Samples;Min_cycle;Max_cycle;Signal;HPM_P1;HPM_P2
2023/01/16 00:01:35;;;;;;;1.83;0.97;;;5.90;99.90;;;;;;4999249;28;20450;-57
2023/01/16 00:04:04;;;;;;;1.77;0.90;;;5.90;99.90;;;;;;4996783;28;20505;-62
2023/01/16 00:06:31;;;;;;;2.10;1.33;;;6.00;99.90;;;;;;4998421;28;20479;-62
2023/01/16 00:08:57;;;;;;;1.47;1.10;;;6.00;99.90;;;;;;4979049;28;20495;-66
2023/01/16 00:11:24;;;;;;;1.20;0.80;;;6.00;99.90;;;;;;4980134;28;20506;-59
2023/01/16 00:13:52;;;;;;;1.87;1.00;;;6.00;99.90;;;;;;4995376;28;20435;-60
2023/01/16 00:16:21;;;;;;;1.67;0.83;;;6.00;99.90;;;;;;4991411;28;20517;-65
2023/01/16 00:18:48;;;;;;;1.17;0.70;;;6.10;99.90;;;;;;4977538;28;20781;-67
2023/01/16 00:21:17;;;;;;;1.97;1.00;;;6.10;99.90;;;;;;4980114;28;20515;-62
2023/01/16 00:23:44;;;;;;;1.20;0.90;;;6.10;99.90;;;;;;4977791;28;20483;-63
2023/01/16 00:26:11;;;;;;;2.00;1.00;;;6.10;99.90;;;;;;4976582;28;20470;-63
2023/01/16 00:28:38;;;;;;;1.63;0.70;;;6.10;99.90;;;;;;4976376;28;20493;-64
2023/01/16 00:31:06;;;;;;;1.60;0.80;;;6.10;99.90;;;;;;4976096;28;20493;-63
2023/01/16 00:33:33;;;;;;;1.67;0.87;;;6.10;99.90;;;;;;4998915;28;20466;-51
2023/01/16 00:36:00;;;;;;;1.30;0.90;;;6.10;99.90;;;;;;5000007;28;20458;-54
2023/01/16 00:38:28;;;;;;;1.00;0.73;;;6.00;99.90;;;;;;5000044;28;20454;-53
2023/01/16 00:40:55;;;;;;;3.93;0.83;;;6.00;99.90;;;;;;4999888;28;20435;-59
2023/01/16 00:43:22;;;;;;;4.60;1.00;;;6.00;99.90;;;;;;4999952;28;20534;-53
2023/01/16 00:45:49;;;;;;;1.20;0.80;;;6.00;99.90;;;;;;4999920;28;20408;-49
2023/01/16 00:48:16;;;;;;;2.27;1.27;;;6.00;99.90;;;;;;4999823;28;20447;-53
2023/01/16 00:50:43;;;;;;;1.60;0.93;;;6.00;99.90;;;;;;4999876;28;20411;-53
2023/01/16 00:53:10;;;;;;;2.03;1.43;;;6.00;99.90;;;;;;4991017;28;20493;-63
2023/01/16 00:55:41;;;;;;;2.53;1.00;;;6.00;99.90;;;;;;4981063;28;20541;-64
2023/01/16 00:58:08;;;;;;;3.03;0.90;;;6.00;99.90;;;;;;4977380;28;20471;-61
2023/01/16 01:00:35;;;;;;;2.60;1.20;;;6.00;99.90;;;;;;4975745;28;20450;-63
2023/01/16 01:03:02;;;;;;;1.23;1.00;;;6.00;99.90;;;;;;4975714;28;20459;-61
2023/01/16 01:05:29;;;;;;;4.10;0.80;;;6.00;99.90;;;;;;4975944;28;20466;-60
2023/01/16 01:07:58;;;;;;;2.90;1.10;;;5.90;99.90;;;;;;4983640;28;20984;-63
2023/01/16 01:10:25;;;;;;;1.00;0.80;;;5.90;99.90;;;;;;4978928;28;20443;-62
2023/01/16 01:12:55;;;;;;;1.53;0.90;;;5.80;99.90;;;;;;4975588;28;20465;-61
2023/01/16 01:15:22;;;;;;;2.63;1.00;;;5.80;99.90;;;;;;4978334;28;20439;-60
2023/01/16 01:17:50;;;;;;;1.10;0.90;;;5.70;99.90;;;;;;4982011;28;20470;-63
2023/01/16 01:20:17;;;;;;;1.20;0.80;;;5.70;99.90;;;;;;4985071;28;20541;-60
2023/01/16 01:22:45;;;;;;;2.03;1.10;;;5.70;99.90;;;;;;4991531;28;20454;-64
2023/01/16 01:25:12;;;;;;;2.60;2.40;;;5.70;99.90;;;;;;4991540;28;20439;-62
2023/01/16 01:27:39;;;;;;;4.70;1.20;;;5.60;99.90;;;;;;4996080;28;20446;-63
2023/01/16 01:30:09;;;;;;;2.00;0.80;;;5.60;99.90;;;;;;4995695;28;20513;-64
2023/01/16 01:32:36;;;;;;;1.80;0.90;;;5.60;99.90;;;;;;4996128;28;20497;-62
2023/01/16 01:35:04;;;;;;;1.30;1.03;;;5.50;99.90;;;;;;4996157;28;20470;-62
2023/01/16 01:37:31;;;;;;;1.20;0.97;;;5.50;99.90;;;;;;4995258;28;20474;-64
2023/01/16 01:39:58;;;;;;;2.03;1.03;;;5.50;99.90;;;;;;4996021;28;20541;-64
2023/01/16 01:42:43;;;;;;;0.90;0.67;;;5.40;99.90;;;;;;4994076;28;20481;-64
2023/01/16 01:45:17;;;;;;;0.90;0.70;;;5.40;99.90;;;;;;4994890;28;20427;-62
2023/01/16 01:47:51;;;;;;;1.20;0.67;;;5.40;99.90;;;;;;4992651;28;20427;-62
2023/01/16 01:50:26;;;;;;;4.40;1.03;;;5.40;99.90;;;;;;4985195;28;20430;-63
2023/01/16 01:52:54;;;;;;;1.70;0.83;;;5.40;99.90;;;;;;4985967;28;20519;-62
2023/01/16 01:55:22;;;;;;;0.83;0.60;;;5.40;99.90;;;;;;4984609;28;20574;-63
2023/01/16 01:57:55;;;;;;;2.20;0.87;;;5.40;99.90;;;;;;4984638;28;20482;-64
2023/01/16 02:00:25;;;;;;;5.43;0.90;;;5.40;99.90;;;;;;4983746;28;20478;-62
2023/01/16 02:02:56;;;;;;;1.30;0.80;;;5.40;99.90;;;;;;4983081;28;20431;-62
2023/01/16 02:05:28;;;;;;;1.60;0.90;;;5.40;99.90;;;;;;4984067;28;20510;-53
2023/01/16 02:07:55;;;;;;;2.80;1.20;;;5.40;99.90;;;;;;4998716;28;20534;-63
2023/01/16 02:10:28;;;;;;;1.00;0.80;;;5.40;99.90;;;;;;4996177;28;20454;-64
2023/01/16 02:12:56;;;;;;;1.00;0.80;;;5.40;99.90;;;;;;4993285;28;20470;-61
2023/01/16 02:15:24;;;;;;;8.33;1.03;;;5.40;99.90;;;;;;4992764;28;20435;-62
2023/01/16 02:20:48;;;;;;;3.70;1.87;;;5.40;99.90;;;;;;4999594;28;20410;-60
2023/01/16 02:23:48;;;;;;;1.40;0.90;;;5.50;99.90;;;;;;4999533;28;20458;-63
2023/01/16 02:26:46;;;;;;;2.13;0.80;;;5.40;99.90;;;;;;4999900;28;20535;-59
2023/01/16 02:29:45;;;;;;;1.63;1.03;;;5.40;99.90;;;;;;4999699;28;20447;-57
2023/01/16 02:32:26;;;;;;;1.40;0.80;;;5.40;99.90;;;;;;4980830;28;20475;-62
2023/01/16 02:35:14;;;;;;;1.87;1.07;;;5.40;99.90;;;;;;4978552;28;20431;-62
2023/01/16 02:37:46;;;;;;;1.33;0.90;;;5.50;99.90;;;;;;4975039;28;20589;-62
2023/01/16 02:40:26;;;;;;;1.53;1.00;;;5.50;99.90;;;;;;4978422;28;20471;-62
2023/01/16 02:43:03;;;;;;;1.80;0.90;;;5.60;99.90;;;;;;4978114;28;20450;-59
2023/01/16 02:45:39;;;;;;;4.60;1.00;;;5.60;99.90;;;;;;4978424;28;20455;-61
2023/01/16 02:48:12;;;;;;;2.23;1.77;;;5.60;99.90;;;;;;4978397;28;20443;-63
2023/01/16 02:50:47;;;;;;;2.37;1.07;;;5.60;99.90;;;;;;4978002;28;20521;-64
2023/01/16 02:53:20;;;;;;;2.80;1.00;;;5.60;99.90;;;;;;4978128;28;20825;-63
2023/01/16 02:55:49;;;;;;;1.73;0.70;;;5.50;99.90;;;;;;4978116;28;20474;-63
2023/01/16 02:58:18;;;;;;;3.43;1.03;;;5.50;99.90;;;;;;4977717;28;20537;-62
2023/01/16 03:00:53;;;;;;;2.50;1.30;;;5.50;99.90;;;;;;4979196;28;20474;-64
2023/01/16 03:03:39;;;;;;;1.20;0.80;;;5.40;99.90;;;;;;4978106;28;20545;-64
2023/01/16 03:06:18;;;;;;;1.87;0.80;;;5.40;99.90;;;;;;4978517;28;20509;-67
2023/01/16 03:08:55;;;;;;;1.60;0.83;;;5.40;99.90;;;;;;4978063;28;20554;-66
2023/01/16 03:11:25;;;;;;;1.17;0.80;;;5.30;99.90;;;;;;4978538;28;20445;-66
2023/01/16 03:14:18;;;;;;;4.63;1.03;;;5.30;99.90;;;;;;4977735;28;20516;-67
2023/01/16 03:17:01;;;;;;;1.50;1.07;;;5.30;99.90;;;;;;4977569;28;20953;-65
2023/01/16 03:19:42;;;;;;;1.83;0.60;;;5.30;99.90;;;;;;4977481;28;20509;-64
2023/01/16 03:22:13;;;;;;;1.27;0.83;;;5.30;99.90;;;;;;4977513;28;20467;-65
2023/01/16 03:24:56;;;;;;;2.30;1.13;;;5.20;99.90;;;;;;4977441;28;20526;-65
2023/01/16 03:27:33;;;;;;;1.10;0.80;;;5.10;99.90;;;;;;4977665;28;20579;-65
2023/01/16 03:30:08;;;;;;;1.10;1.00;;;5.20;99.90;;;;;;4977829;28;20498;-66
2023/01/16 03:32:41;;;;;;;1.20;0.80;;;5.10;99.90;;;;;;4977546;28;20545;-67
2023/01/16 03:35:14;;;;;;;1.13;0.83;;;5.10;99.90;;;;;;4977287;28;20436;-66
2023/01/16 03:37:45;;;;;;;2.20;1.10;;;5.10;99.90;;;;;;4977488;28;20510;-67
2023/01/16 03:40:17;;;;;;;1.00;0.90;;;5.10;99.90;;;;;;4977536;28;20554;-64
2023/01/16 03:42:48;;;;;;;1.00;0.70;;;5.10;99.90;;;;;;4977495;28;20442;-66
2023/01/16 03:45:20;;;;;;;1.73;0.80;;;5.10;99.90;;;;;;4977657;28;20553;-69
2023/01/16 03:47:52;;;;;;;3.53;0.80;;;5.10;99.90;;;;;;4977196;28;20436;-66
2023/01/16 03:50:23;;;;;;;1.87;0.70;;;5.00;99.90;;;;;;4977251;28;20533;-64
2023/01/16 03:52:55;;;;;;;1.40;1.00;;;5.00;99.90;;;;;;4976950;28;20471;-64
2023/01/16 03:55:28;;;;;;;5.33;0.93;;;5.00;99.90;;;;;;4977037;28;20505;-67
2023/01/16 03:58:00;;;;;;;1.63;1.30;;;5.00;99.90;;;;;;4977014;28;20477;-65
2023/01/16 04:00:37;;;;;;;1.33;1.00;;;5.00;99.90;;;;;;4977436;28;20478;-66
2023/01/16 04:03:08;;;;;;;1.70;0.90;;;5.00;99.90;;;;;;4978029;28;20494;-68
2023/01/16 04:05:43;;;;;;;1.87;0.90;;;5.10;99.90;;;;;;4977447;28;20427;-64
2023/01/16 04:08:13;;;;;;;1.13;0.73;;;4.90;99.90;;;;;;4976689;28;20473;-66
2023/01/16 04:10:45;;;;;;;3.20;1.00;;;5.00;99.90;;;;;;4980827;28;20466;-65
2023/01/16 04:13:18;;;;;;;1.60;1.00;;;4.90;99.90;;;;;;4982894;28;20510;-66
2023/01/16 04:15:48;;;;;;;11.10;1.53;;;4.90;99.90;;;;;;4979969;28;20503;-62
2023/01/16 04:18:16;;;;;;;1.97;1.10;;;4.90;99.90;;;;;;4980309;28;20482;-63
2023/01/16 04:20:49;;;;;;;5.10;1.10;;;4.80;99.90;;;;;;4979091;28;20558;-65
2023/01/16 04:23:18;;;;;;;1.40;0.90;;;4.80;99.90;;;;;;4979741;28;20494;-64
2023/01/16 04:25:46;;;;;;;1.30;0.90;;;4.80;99.90;;;;;;4980072;28;20497;-65
2023/01/16 04:28:13;;;;;;;1.93;1.27;;;4.70;99.90;;;;;;4981302;28;20506;-65
2023/01/16 04:30:40;;;;;;;1.53;1.40;;;4.70;99.90;;;;;;4981002;28;20947;-60
2023/01/16 04:33:07;;;;;;;1.53;0.90;;;4.70;99.90;;;;;;4980266;28;20542;-60
2023/01/16 04:35:34;;;;;;;1.10;0.97;;;4.70;99.90;;;;;;4979438;28;20509;-65
2023/01/16 04:38:03;;;;;;;5.80;1.47;;;4.70;99.90;;;;;;4979868;28;20478;-64
2023/01/16 04:40:30;;;;;;;1.40;1.00;;;4.80;99.90;;;;;;4980702;28;20566;-64
2023/01/16 04:42:58;;;;;;;3.20;1.10;;;4.80;99.90;;;;;;4987581;28;20447;-63
2023/01/16 04:45:25;;;;;;;6.80;1.40;;;4.80;99.90;;;;;;4994336;28;20447;-66
2023/01/16 04:47:53;;;;;;;1.60;1.20;;;4.80;99.90;;;;;;4987909;28;20783;-66
2023/01/16 04:50:20;;;;;;;1.07;0.90;;;4.90;99.90;;;;;;4987956;28;20447;-61
2023/01/16 04:52:47;;;;;;;1.73;1.10;;;4.80;99.90;;;;;;4987510;28;20471;-67
2023/01/16 04:55:16;;;;;;;1.10;0.70;;;4.70;99.90;;;;;;4985713;28;20512;-65
2023/01/16 04:57:43;;;;;;;1.20;0.93;;;4.80;99.90;;;;;;4982122;28;20546;-65
2023/01/16 05:00:12;;;;;;;1.30;1.07;;;4.80;99.90;;;;;;4980648;28;20561;-66
2023/01/16 05:02:39;;;;;;;1.47;0.90;;;4.70;99.90;;;;;;4979447;28;20471;-63
2023/01/16 05:05:07;;;;;;;1.40;1.10;;;4.70;99.90;;;;;;4979081;28;20507;-67
2023/01/16 05:07:34;;;;;;;2.27;1.20;;;4.70;99.90;;;;;;4979684;28;20518;-66
2023/01/16 05:10:01;;;;;;;2.67;1.47;;;4.80;99.90;;;;;;4979670;28;20843;-66
2023/01/16 05:12:29;;;;;;;4.77;1.40;;;4.80;99.90;;;;;;4991036;28;20482;-65
2023/01/16 05:14:56;;;;;;;1.40;0.90;;;4.70;99.90;;;;;;4994821;28;20474;-65
2023/01/16 05:17:26;;;;;;;3.10;1.27;;;4.70;99.90;;;;;;4993171;28;20993;-66
2023/01/16 05:19:53;;;;;;;1.40;1.00;;;4.70;99.90;;;;;;4987261;28;20490;-63
2023/01/16 05:22:23;;;;;;;1.80;1.70;;;4.70;99.90;;;;;;4987251;28;20447;-64
2023/01/16 05:24:50;;;;;;;1.63;1.13;;;5.30;99.90;;;;;;4986643;28;20431;-66
2023/01/16 05:27:17;;;;;;;3.93;1.30;;;4.70;99.90;;;;;;4986924;28;20451;-64
2023/01/16 05:29:45;;;;;;;2.90;1.07;;;4.70;99.90;;;;;;4986115;28;20467;-61
2023/01/16 05:32:12;;;;;;;2.30;1.20;;;4.80;99.90;;;;;;4985856;28;20500;-66
2023/01/16 05:34:39;;;;;;;2.10;1.13;;;4.80;99.90;;;;;;4985961;28;21005;-64
2023/01/16 05:37:05;;;;;;;1.83;1.20;;;4.80;99.90;;;;;;4986376;28;20443;-65
2023/01/16 05:39:32;;;;;;;2.37;1.63;;;4.90;99.90;;;;;;4987556;28;20486;-65
2023/01/16 05:41:59;;;;;;;2.70;1.57;;;4.90;99.90;;;;;;4985741;28;20467;-65
2023/01/16 05:44:26;;;;;;;2.50;1.13;;;4.90;99.90;;;;;;4985953;28;20924;-63
2023/01/16 05:46:54;;;;;;;2.00;1.03;;;4.90;99.90;;;;;;4986379;28;20911;-63
2023/01/16 05:49:21;;;;;;;2.60;1.17;;;4.90;99.90;;;;;;4986542;28;20431;-65
2023/01/16 05:51:48;;;;;;;4.07;1.13;;;5.00;99.90;;;;;;4986699;28;20461;-64
2023/01/16 05:54:15;;;;;;;6.50;1.30;;;5.00;99.90;;;;;;4984202;28;20482;-65
2023/01/16 05:56:42;;;;;;;1.97;1.10;;;5.00;99.90;;;;;;4980601;28;20454;-66
2023/01/16 05:59:10;;;;;;;2.10;1.90;;;4.90;99.90;;;;;;4980964;28;20447;-63
2023/01/16 06:01:37;;;;;;;3.80;1.43;;;4.90;99.90;;;;;;4981157;28;20427;-65
2023/01/16 06:04:05;;;;;;;3.33;1.47;;;4.90;99.90;;;;;;4980260;28;20469;-66
2023/01/16 06:06:32;;;;;;;1.63;1.13;;;4.80;99.90;;;;;;4979000;28;20979;-66
2023/01/16 06:08:59;;;;;;;6.20;1.60;;;4.80;99.90;;;;;;4978308;28;20508;-67
2023/01/16 06:11:26;;;;;;;1.63;1.07;;;4.80;99.90;;;;;;4979121;28;20544;-64
2023/01/16 06:13:53;;;;;;;1.90;1.30;;;4.70;99.90;;;;;;4981974;28;20471;-65
2023/01/16 06:16:22;;;;;;;3.70;1.30;;;4.70;99.90;;;;;;4981840;28;20506;-65
2023/01/16 06:18:49;;;;;;;4.07;1.37;;;4.70;99.90;;;;;;4981559;28;20474;-66
2023/01/16 06:21:17;;;;;;;2.30;1.20;;;4.70;99.90;;;;;;4981343;28;21006;-64
2023/01/16 06:23:44;;;;;;;3.67;1.30;;;4.70;99.90;;;;;;4985754;28;20442;-66
2023/01/16 06:26:11;;;;;;;3.33;1.47;;;4.70;99.90;;;;;;4998046;28;20470;-65
2023/01/16 06:28:38;;;;;;;2.30;1.20;;;4.70;99.90;;;;;;4997951;28;20446;-66
2023/01/16 06:31:06;;;;;;;4.73;1.10;;;4.60;99.90;;;;;;4991458;28;20495;-64
2023/01/16 06:33:34;;;;;;;1.93;1.20;;;4.60;99.90;;;;;;4983984;28;20507;-65
2023/01/16 06:36:02;;;;;;;2.20;1.40;;;4.70;99.90;;;;;;4984593;28;20521;-66
2023/01/16 06:38:30;;;;;;;2.03;1.17;;;4.60;99.90;;;;;;4984200;28;20540;-67
2023/01/16 06:40:57;;;;;;;2.80;1.73;;;4.60;99.90;;;;;;4988363;28;20558;-67
2023/01/16 06:43:29;;;;;;;2.70;1.30;;;4.60;99.90;;;;;;4997488;28;20555;-56
2023/01/16 06:45:58;;;;;;;2.50;1.20;;;4.60;99.90;;;;;;5001661;28;20447;-56
2023/01/16 06:48:31;;;;;;;2.77;0.90;;;4.60;99.90;;;;;;5000691;28;20458;-55
2023/01/16 06:51:05;;;;;;;3.40;1.80;;;4.60;99.90;;;;;;4999069;28;20427;-57
2023/01/16 06:53:33;;;;;;;3.13;1.43;;;4.60;99.90;;;;;;4998316;28;20451;-64
2023/01/16 06:56:00;;;;;;;1.00;0.80;;;4.70;99.90;;;;;;4998671;28;20487;-67
2023/01/16 06:58:27;;;;;;;1.60;1.20;;;4.70;99.90;;;;;;4997923;28;20454;-63
2023/01/16 07:00:55;;;;;;;8.63;2.80;;;4.70;99.90;;;;;;4997692;28;20490;-62
2023/01/16 07:03:22;;;;;;;2.00;1.20;;;4.60;99.90;;;;;;4997444;28;20496;-64
2023/01/16 07:05:49;;;;;;;1.50;1.10;;;4.70;99.90;;;;;;4997618;28;20487;-61
2023/01/16 07:08:16;;;;;;;7.17;3.07;;;4.70;99.90;;;;;;4998483;28;20442;-62
2023/01/16 07:10:46;;;;;;;5.57;2.67;;;4.70;99.90;;;;;;4998765;28;20440;-64
2023/01/16 07:13:13;;;;;;;5.70;1.60;;;4.70;99.90;;;;;;4998329;28;20435;-64
2023/01/16 07:24:22;;;;;;;4.23;2.23;;;4.80;99.90;;;;;;4985592;28;20438;-67
2023/01/16 07:26:54;;;;;;;4.07;1.87;;;4.80;99.90;;;;;;4983026;28;20458;-65
2023/01/16 07:29:21;;;;;;;4.63;1.90;;;4.80;99.90;;;;;;4982809;28;20514;-65
2023/01/16 07:31:48;;;;;;;2.03;1.60;;;4.80;99.90;;;;;;4982921;28;20514;-66
2023/01/16 07:34:15;;;;;;;6.83;2.00;;;4.80;99.90;;;;;;4983257;28;20471;-65
2023/01/16 07:36:42;;;;;;;8.17;5.23;;;4.90;99.90;;;;;;4982456;28;20470;-64
2023/01/16 07:39:09;;;;;;;4.80;2.63;;;4.90;99.90;;;;;;4982463;28;20487;-65
2023/01/16 07:41:36;;;;;;;2.50;1.83;;;4.90;99.90;;;;;;4982295;28;20507;-65
2023/01/16 07:44:05;;;;;;;4.90;2.17;;;4.80;99.90;;;;;;4980932;28;20451;-67
2023/01/16 07:46:33;;;;;;;3.50;1.93;;;4.80;99.90;;;;;;4981733;28;20459;-65
2023/01/16 07:48:59;;;;;;;4.63;1.70;;;4.80;99.90;;;;;;4981613;28;20979;-67
2023/01/16 07:51:26;;;;;;;8.50;1.87;;;4.80;99.90;;;;;;4978469;28;20498;-66
2023/01/16 07:53:54;;;;;;;2.97;1.60;;;4.80;99.90;;;;;;4977082;28;20482;-64
2023/01/16 07:56:21;;;;;;;2.70;1.17;;;4.80;99.90;;;;;;4977180;28;20931;-64
2023/01/16 07:58:49;;;;;;;4.37;2.17;;;4.70;99.90;;;;;;4977214;28;20518;-66
2023/01/16 08:01:17;;;;;;;3.53;1.47;;;4.80;99.90;;;;;;4978751;28;20868;-65
2023/01/16 08:03:44;;;;;;;1.73;1.40;;;4.80;99.90;;;;;;4987815;28;20454;-65
2023/01/16 08:06:11;;;;;;;4.00;2.27;;;4.80;99.90;;;;;;4984250;28;20510;-65
2023/01/16 08:08:39;;;;;;;3.10;1.37;;;4.90;99.90;;;;;;4988144;28;20498;-64
2023/01/16 08:13:47;;;;;;;1.83;1.13;;;4.90;99.90;;;;;;4996214;28;20462;-64
2023/01/16 08:16:14;;;;;;;6.13;1.63;;;4.90;99.90;;;;;;4986307;28;20439;-70
2023/01/16 08:18:42;;;;;;;2.33;1.20;;;4.90;99.90;;;;;;4981032;28;20467;-72
2023/01/16 08:21:09;;;;;;;1.47;1.10;;;5.20;99.90;;;;;;4988900;28;20502;-65
2023/01/16 08:23:38;;;;;;;5.67;2.00;;;5.60;99.90;;;;;;4997199;28;20451;-69
2023/01/16 08:26:10;;;;;;;4.83;1.50;;;6.00;99.90;;;;;;4997057;28;20443;-68
2023/01/16 08:28:40;;;;;;;3.77;1.43;;;6.10;99.90;;;;;;4995082;28;20462;-71
2023/01/16 08:31:11;;;;;;;4.03;1.33;;;6.00;99.90;;;;;;4988670;28;20470;-70
2023/01/16 08:33:38;;;;;;;2.00;1.80;;;6.20;99.90;;;;;;4979580;28;20431;-70
2023/01/16 08:36:09;;;;;;;1.70;1.20;;;6.40;99.90;;;;;;4978842;28;20498;-72
2023/01/16 08:38:36;;;;;;;4.53;1.80;;;6.40;99.90;;;;;;4979627;28;20480;-71
2023/01/16 08:51:21;;;;;;;1.50;1.00;;;6.60;99.90;;;;;;4978755;28;21041;-53
2023/01/16 08:52:29;;;;;;;7.00;2.47;;;7.00;99.90;;;;;;4991131;28;20482;-57
2023/01/16 08:54:57;;;;;;;10.63;2.43;;;6.00;99.90;;;;;;4976144;28;20462;-57
2023/01/16 08:57:24;;;;;;;4.97;4.13;;;7.00;99.90;;;;;;4976022;28;20447;-57
2023/01/16 08:59:51;;;;;;;7.57;2.57;;;6.90;99.90;;;;;;4976490;28;20447;-54
2023/01/16 09:02:22;;;;;;;8.40;2.80;;;6.70;99.90;;;;;;4977874;28;20493;-52
2023/01/16 09:04:51;;;;;;;2.80;1.73;;;6.50;99.90;;;;;;4996379;28;20478;-56
2023/01/16 09:07:18;;;;;;;3.60;2.30;;;6.30;99.90;;;;;;4997045;28;20491;-61
2023/01/16 09:09:46;;;;;;;8.93;2.70;;;6.20;99.90;;;;;;4996099;28;20467;-58
2023/01/16 09:14:59;;;;;;;3.40;2.40;;;6.00;99.90;;;;;;4996558;28;20494;-57
2023/01/16 09:17:27;;;;;;;7.90;2.67;;;5.90;99.90;;;;;;4989411;28;20447;-59
2023/01/16 09:19:54;;;;;;;6.37;3.67;;;5.80;99.90;;;;;;4994616;28;20486;-54
2023/01/16 09:22:21;;;;;;;7.00;2.90;;;5.80;99.90;;;;;;4990731;28;20470;-57
2023/01/16 09:24:49;;;;;;;4.00;2.40;;;5.80;99.90;;;;;;4994058;28;20478;-50
2023/01/16 09:27:18;;;;;;;6.03;3.30;;;5.70;99.90;;;;;;4976915;28;20446;-61
2023/01/16 09:29:47;;;;;;;2.50;1.97;;;5.70;99.90;;;;;;4976223;28;20467;-61
2023/01/16 09:32:14;;;;;;;2.97;2.33;;;5.70;99.90;;;;;;4980322;28;20509;-59
2023/01/16 09:34:42;;;;;;;2.30;1.10;;;5.70;99.90;;;;;;4980119;28;20505;-57
2023/01/16 09:37:09;;;;;;;3.33;2.60;;;5.70;99.90;;;;;;4980225;28;20455;-61
2023/01/16 09:39:37;;;;;;;12.33;1.80;;;7.60;99.90;;;;;;4979627;28;20503;-58
2023/01/16 09:45:16;;;;;;;5.67;4.10;;;8.00;99.90;;;;;;4978788;28;20466;-60
2023/01/16 09:47:47;;;;;;;5.27;2.27;;;8.90;99.90;;;;;;4979622;28;20439;-64
2023/01/16 09:50:20;;;;;;;4.83;2.40;;;9.00;99.90;;;;;;4979752;28;20447;-62
2023/01/16 09:58:38;;;;;;;3.07;1.90;;;12.20;99.90;;;;;;4995433;28;20569;-60
2023/01/16 10:01:13;;;;;;;5.13;2.50;;;12.40;99.90;;;;;;4995692;28;20466;-61
2023/01/16 10:03:42;;;;;;;2.80;1.67;;;11.90;99.90;;;;;;4996328;28;20470;-58
2023/01/16 10:06:24;;;;;;;4.63;1.60;;;11.70;99.90;;;;;;4997802;28;20522;-57
2023/01/16 10:09:09;;;;;;;3.93;1.80;;;11.50;99.90;;;;;;4995006;28;20475;-58
2023/01/16 10:11:44;;;;;;;6.03;1.40;;;11.20;99.90;;;;;;4991538;28;20427;-61
2023/01/16 10:14:36;;;;;;;3.70;2.00;;;10.70;99.90;;;;;;4979659;28;20506;-61
2023/01/16 10:17:17;;;;;;;5.13;1.30;;;10.60;99.90;;;;;;4977839;28;20474;-58
2023/01/16 10:19:59;;;;;;;3.97;1.90;;;10.80;99.90;;;;;;4978553;28;20501;-61
2023/01/16 10:22:36;;;;;;;2.43;1.30;;;10.90;99.90;;;;;;4980170;28;20471;-61
2023/01/16 10:25:14;;;;;;;8.40;1.73;;;11.50;99.90;;;;;;4989283;28;20438;-53
2023/01/16 10:27:51;;;;;;;2.60;1.30;;;11.90;99.90;;;;;;5002535;28;20403;-52
2023/01/16 10:30:24;;;;;;;1.10;0.90;;;12.50;99.90;;;;;;5002057;28;20479;-59
2023/01/16 10:32:58;;;;;;;2.20;1.30;;;13.00;99.90;;;;;;4979550;28;20442;-60
2023/01/16 10:35:30;;;;;;;5.00;1.83;;;13.80;96.80;;;;;;4979755;28;20439;-60
2023/01/16 10:38:03;;;;;;;2.30;0.97;;;14.30;92.50;;;;;;4978587;28;20475;-61
2023/01/16 10:40:31;;;;;;;1.87;1.10;;;14.30;90.40;;;;;;4979000;28;20534;-60
2023/01/16 10:51:29;;;;;;;3.40;1.40;;;12.80;90.80;;;;;;4978226;28;20539;-59
2023/01/16 10:53:58;;;;;;;3.80;1.37;;;11.80;94.10;;;;;;4977922;28;20490;-58
2023/01/16 10:56:25;;;;;;;2.20;1.33;;;11.10;98.00;;;;;;4978970;28;20450;-61
2023/01/16 10:58:52;;;;;;;3.20;1.43;;;10.70;99.90;;;;;;4977043;28;20462;-61
2023/01/16 11:01:25;;;;;;;1.90;1.70;;;10.30;99.90;;;;;;4978634;28;20479;-60
2023/01/16 11:03:56;;;;;;;2.60;1.13;;;10.00;99.90;;;;;;4978901;28;20553;-62
2023/01/16 11:06:25;;;;;;;5.23;1.40;;;9.70;99.90;;;;;;4979218;28;20795;-62
2023/01/16 11:08:55;;;;;;;3.43;2.03;;;9.50;99.90;;;;;;4977985;28;20470;-60
2023/01/16 11:20:09;;;;;;;3.53;1.13;;;9.10;99.90;;;;;;4979340;28;20403;-58
2023/01/16 11:22:40;;;;;;;1.37;1.00;;;8.90;99.90;;;;;;4978566;28;20490;-59
2023/01/16 11:25:14;;;;;;;2.23;1.63;;;8.90;99.90;;;;;;4982877;28;20427;-58
2023/01/16 11:27:41;;;;;;;5.70;1.40;;;8.90;99.90;;;;;;4992252;28;20467;-58
2023/01/16 11:30:18;;;;;;;2.80;1.40;;;8.80;99.90;;;;;;4995997;28;20427;-55
2023/01/16 11:32:49;;;;;;;1.93;1.30;;;8.70;99.90;;;;;;4998686;28;20514;-59
2023/01/16 11:35:17;;;;;;;1.53;1.37;;;8.70;99.90;;;;;;4998794;28;20466;-58
2023/01/16 11:37:53;;;;;;;2.10;1.30;;;8.70;99.90;;;;;;4997601;28;20462;-57
2023/01/16 11:40:23;;;;;;;3.50;1.70;;;8.60;99.90;;;;;;4996989;28;20502;-56
2023/01/16 11:46:11;;;;;;;4.50;1.63;;;8.40;99.90;;;;;;4958511;29;20432;-57
2023/01/16 11:48:41;;;;;;;5.30;1.40;;;8.30;99.90;;;;;;4958741;29;20417;-56
2023/01/16 11:51:13;;;;;;;2.97;1.57;;;8.30;99.90;;;;;;4981140;28;20477;-59
2023/01/16 11:53:43;;;;;;;1.93;1.20;;;8.40;99.90;;;;;;4998334;28;20462;-56
2023/01/16 11:56:49;;;;;;;3.37;1.77;;;8.30;99.90;;;;;;4998595;28;20777;-57
2023/01/16 11:59:30;;;;;;;1.87;1.47;;;8.30;99.90;;;;;;4920625;29;20433;-57
2023/01/16 12:02:20;;;;;;;1.53;1.20;;;8.30;99.90;;;;;;4920214;29;20521;-58
2023/01/16 12:07:52;;;;;;;3.90;2.07;;;8.30;99.90;;;;;;4998190;28;20437;-60
2023/01/16 12:10:31;;;;;;;3.37;1.50;;;8.40;99.90;;;;;;4997731;28;20463;-60
2023/01/16 12:16:01;;;;;;;4.13;1.87;;;8.40;99.90;;;;;;4997894;28;20411;-59
2023/01/16 12:18:35;;;;;;;3.03;1.87;;;8.40;99.90;;;;;;4997932;28;20466;-57
2023/01/16 12:21:08;;;;;;;1.87;1.10;;;8.40;99.90;;;;;;4998521;28;20429;-57
2023/01/16 12:24:06;;;;;;;2.60;1.53;;;8.50;99.90;;;;;;4998486;28;20424;-53
2023/01/16 12:26:40;;;;;;;3.77;1.70;;;8.50;99.90;;;;;;4998584;28;20433;-57
2023/01/16 12:29:22;;;;;;;11.67;1.77;;;8.50;99.90;;;;;;4997833;28;20451;-58
2023/01/16 12:32:10;;;;;;;1.63;1.50;;;8.50;99.90;;;;;;4997625;28;20419;-59
2023/01/16 12:34:52;;;;;;;5.03;1.57;;;8.40;99.90;;;;;;4997444;28;20411;-63
2023/01/16 12:37:30;;;;;;;2.73;1.87;;;9.70;99.90;;;;;;4997336;28;20511;-57
2023/01/16 12:40:10;;;;;;;5.23;1.33;;;10.10;99.90;;;;;;4997253;28;20458;-57
2023/01/16 12:45:48;;;;;;;2.13;1.70;;;9.70;99.90;;;;;;4971896;28;20458;-60
2023/01/16 12:48:52;;;;;;;3.20;1.27;;;9.50;99.90;;;;;;4995843;28;20438;-58
2023/01/16 12:51:27;;;;;;;2.30;1.60;;;9.30;99.90;;;;;;4995896;28;20423;-56
2023/01/16 12:54:34;;;;;;;2.63;1.80;;;9.20;99.90;;;;;;4995804;28;20842;-60
2023/01/16 12:57:18;;;;;;;2.53;1.80;;;9.10;99.90;;;;;;4995217;28;20462;-58
2023/01/16 12:59:52;;;;;;;4.37;1.70;;;8.90;99.90;;;;;;4995371;28;20439;-60
2023/01/16 13:02:28;;;;;;;3.87;1.33;;;8.80;99.90;;;;;;4995328;28;20467;-59
2023/01/16 13:05:01;;;;;;;1.60;1.27;;;8.80;99.90;;;;;;4996217;28;20462;-63
2023/01/16 13:07:33;;;;;;;3.93;2.27;;;8.70;99.90;;;;;;4996461;28;20435;-58
2023/01/16 13:15:50;;;;;;;5.63;1.80;;;8.60;99.90;;;;;;4995128;28;20490;-58
2023/01/16 13:18:24;;;;;;;1.70;1.43;;;8.60;99.90;;;;;;4996825;28;20411;-58
2023/01/16 13:20:56;;;;;;;3.60;1.43;;;8.50;99.90;;;;;;4997050;28;20459;-56
2023/01/16 13:23:26;;;;;;;2.80;1.90;;;8.40;99.90;;;;;;5001235;28;20486;-59
2023/01/16 13:26:02;;;;;;;2.57;1.70;;;8.40;99.90;;;;;;5001412;28;20498;-58
2023/01/16 13:28:42;;;;;;;3.07;1.60;;;8.40;99.90;;;;;;5000730;28;20446;-59
2023/01/16 13:31:16;;;;;;;1.73;1.17;;;8.40;99.90;;;;;;5000986;28;20431;-61
2023/01/16 13:33:49;;;;;;;2.23;1.83;;;8.40;99.90;;;;;;5001070;28;20411;-55
2023/01/16 13:36:39;;;;;;;3.30;1.60;;;8.40;99.90;;;;;;5000957;28;20419;-57
2023/01/16 13:39:35;;;;;;;2.80;1.73;;;8.40;99.90;;;;;;4999080;28;20443;-58
2023/01/16 13:42:09;;;;;;;1.97;1.53;;;8.40;99.90;;;;;;5000963;28;20498;-54
2023/01/16 13:47:23;;;;;;;3.33;1.30;;;8.40;99.90;;;;;;4948141;28;20454;-58
2023/01/16 13:49:52;;;;;;;2.43;1.40;;;8.40;99.90;;;;;;5000378;28;20501;-62
2023/01/16 13:52:23;;;;;;;2.70;1.37;;;8.40;99.90;;;;;;5000812;28;20455;-56
2023/01/16 13:54:56;;;;;;;6.37;1.87;;;8.40;99.90;;;;;;4999714;28;20498;-57
2023/01/16 13:57:27;;;;;;;1.60;1.20;;;8.40;99.90;;;;;;5000371;28;20461;-56
2023/01/16 13:59:58;;;;;;;2.70;1.13;;;8.30;99.90;;;;;;5000229;28;20503;-59
2023/01/16 14:02:42;;;;;;;2.90;1.93;;;8.30;99.90;;;;;;5000603;28;20482;-58
2023/01/16 14:05:43;;;;;;;6.80;1.60;;;8.20;99.90;;;;;;4997634;28;20451;-56
2023/01/16 14:11:35;;;;;;;2.83;1.70;;;8.20;99.90;;;;;;5000111;28;20526;-57
2023/01/16 14:17:22;;;;;;;5.43;2.40;;;8.20;99.90;;;;;;5000365;28;20457;-59
2023/01/16 14:19:56;;;;;;;4.07;2.10;;;8.20;99.90;;;;;;5000014;28;20489;-59
2023/01/16 14:25:24;;;;;;;1.90;1.37;;;8.20;99.90;;;;;;5000146;28;20419;-59
2023/01/16 14:27:56;;;;;;;2.53;1.50;;;8.20;99.90;;;;;;5000168;28;20494;-60
2023/01/16 14:30:31;;;;;;;1.97;1.40;;;8.20;99.90;;;;;;5000198;28;20431;-58
2023/01/16 14:33:04;;;;;;;4.50;1.43;;;8.20;99.90;;;;;;4999644;28;20419;-57
2023/01/16 14:35:46;;;;;;;1.93;1.20;;;8.10;99.90;;;;;;5000440;28;20467;-53
2023/01/16 14:38:20;;;;;;;2.03;1.13;;;8.10;99.90;;;;;;4999530;28;20467;-60
2023/01/16 14:56:02;;;;;;;1.83;1.20;;;7.80;99.90;;;;;;4921859;29;20466;-57